createdAt,value
2022-12-31T00:04:21.495Z,29.48
2022-12-31T00:09:30.392Z,35.95
2022-12-31T00:14:32.943Z,31.52
2022-12-31T00:19:35.961Z,34.47
2022-12-31T00:24:39.870Z,37.10
2022-12-31T00:29:43.025Z,26.92
2022-12-31T00:34:45.938Z,27.40
2022-12-31T00:39:48.571Z,22.10
2022-12-31T00:44:52.020Z,18.50
2022-12-31T00:49:57.205Z,18.50
2022-12-31T00:55:03.255Z,21.23
2022-12-31T01:00:07.934Z,15.02
2022-12-31T01:05:10.680Z,22.90
2022-12-31T01:10:33.307Z,15.17
2022-12-31T01:15:44.295Z,12.45
2022-12-31T01:20:51.046Z,13.80
2022-12-31T01:25:56.918Z,26.75
2022-12-31T01:31:03.214Z,36.38
2022-12-31T01:36:21.890Z,37.65
2022-12-31T01:41:37.435Z,63.90
2022-12-31T01:46:59.623Z,50.50
2022-12-31T01:52:32.571Z,41.47
2022-12-31T01:57:38.688Z,63.95
2022-12-31T02:02:41.442Z,74.18
2022-12-31T02:08:04.397Z,130.77
2022-12-31T02:13:07.664Z,115.68
2022-12-31T02:18:44.460Z,38.47
2022-12-31T02:24:13.017Z,65.95
2022-12-31T02:29:29.802Z,59.88
2022-12-31T02:34:42.092Z,84.22
2022-12-31T02:39:46.340Z,61.97
2022-12-31T02:44:48.750Z,56.80
2022-12-31T02:50:12.469Z,55.83
2022-12-31T02:55:50.662Z,44.95
2022-12-31T03:01:14.122Z,56.38
2022-12-31T03:06:18.934Z,43.23
2022-12-31T03:11:40.190Z,11.88
2022-12-31T03:16:42.586Z,8.20
2022-12-31T03:22:04.928Z,7.85
2022-12-31T03:27:07.502Z,5.88
2022-12-31T03:32:10.388Z,5.65
2022-12-31T03:37:13.485Z,6.65
2022-12-31T03:42:15.934Z,6.25
2022-12-31T03:47:18.303Z,6.25
2022-12-31T03:52:21.944Z,3.28
2022-12-31T03:57:24.523Z,4.03
2022-12-31T04:02:29.361Z,3.80
2022-12-31T04:07:36.513Z,4.70
2022-12-31T04:12:39.653Z,3.20
2022-12-31T04:17:42.032Z,3.37
2022-12-31T04:22:44.518Z,3.28
2022-12-31T04:27:46.910Z,3.25
2022-12-31T04:32:49.371Z,3.22
2022-12-31T04:37:52.510Z,2.88
2022-12-31T04:42:55.483Z,3.17
2022-12-31T04:47:58.020Z,2.85
2022-12-31T04:53:00.477Z,3.63
2022-12-31T04:58:09.547Z,3.78
2022-12-31T05:03:12.993Z,3.60
2022-12-31T05:13:17.997Z,3.10
2022-12-31T05:18:20.511Z,3.08
2022-12-31T05:23:24.445Z,3.05
2022-12-31T05:28:27.002Z,4.53
2022-12-31T05:33:29.870Z,3.75
2022-12-31T05:38:35.013Z,4.93
2022-12-31T05:43:37.553Z,3.00
2022-12-31T05:48:40.078Z,2.95
2022-12-31T05:53:42.819Z,3.27
2022-12-31T05:58:45.161Z,4.20
2022-12-31T06:03:47.846Z,3.95
2022-12-31T06:08:52.826Z,5.15
2022-12-31T06:13:57.485Z,4.00
2022-12-31T06:18:59.877Z,3.40
2022-12-31T06:24:06.606Z,7.65
2022-12-31T06:29:11.618Z,17.98
2022-12-31T06:34:16.294Z,8.32
2022-12-31T06:39:18.717Z,6.00
2022-12-31T06:44:22.698Z,4.57
2022-12-31T06:49:29.425Z,5.18
2022-12-31T06:54:34.035Z,3.97
2022-12-31T06:59:36.781Z,5.78
2022-12-31T07:05:14.316Z,4.03
2022-12-31T07:10:38.302Z,7.93
2022-12-31T07:20:55.806Z,25.20
2022-12-31T07:26:06.428Z,9.50
2022-12-31T07:31:31.670Z,4.65
2022-12-31T07:37:12.112Z,4.63
2022-12-31T07:42:21.943Z,4.25
2022-12-31T07:47:27.339Z,4.68
2022-12-31T07:52:37.277Z,5.32
2022-12-31T07:57:49.887Z,4.75
2022-12-31T08:03:27.987Z,4.93
2022-12-31T08:08:42.372Z,3.78
2022-12-31T08:13:47.811Z,4.10
2022-12-31T08:18:59.117Z,4.88
2022-12-31T08:24:23.713Z,4.18
2022-12-31T08:42:25.400Z,3.78
2022-12-31T08:47:42.958Z,3.15
2022-12-31T08:52:46.565Z,4.72
2022-12-31T08:58:01.210Z,4.82
2022-12-31T09:03:38.211Z,7.75
2022-12-31T09:09:16.651Z,9.05
2022-12-31T09:14:32.767Z,33.38
2022-12-31T09:19:39.676Z,22.75
2022-12-31T09:24:45.780Z,11.30
2022-12-31T09:35:54.996Z,10.43
2022-12-31T09:41:36.901Z,8.73
2022-12-31T09:47:10.859Z,5.82
2022-12-31T09:52:49.013Z,6.07
2022-12-31T09:58:31.067Z,15.80
2022-12-31T10:03:38.756Z,30.00
2022-12-31T10:09:05.615Z,40.88
2022-12-31T10:14:45.365Z,62.03
2022-12-31T10:20:45.266Z,8.80
2022-12-31T10:26:29.908Z,3.80
2022-12-31T10:32:05.929Z,4.47
2022-12-31T10:37:50.461Z,3.60
2022-12-31T10:43:46.101Z,4.53
2022-12-31T10:49:45.224Z,9.85
2022-12-31T10:56:03.773Z,3.15
2022-12-31T11:01:20.287Z,3.25
2022-12-31T11:20:15.762Z,4.82
2022-12-31T11:26:14.140Z,3.60
2022-12-31T11:31:42.098Z,3.13
2022-12-31T11:37:31.402Z,3.55
2022-12-31T11:43:36.967Z,10.70
2022-12-31T11:48:55.473Z,6.47
2022-12-31T11:54:26.451Z,7.30
2022-12-31T11:59:29.564Z,9.68
2022-12-31T12:04:32.179Z,8.53
2022-12-31T12:09:44.013Z,9.50
2022-12-31T12:15:28.286Z,13.55
2022-12-31T12:20:39.992Z,12.80
2022-12-31T12:25:44.935Z,22.90
2022-12-31T12:30:57.060Z,12.35
2022-12-31T12:36:13.542Z,10.82
2022-12-31T12:41:28.019Z,8.63
2022-12-31T12:46:47.979Z,15.25
2022-12-31T12:52:22.277Z,9.02
2022-12-31T12:57:33.203Z,9.95
2022-12-31T13:02:54.281Z,14.93
2022-12-31T13:08:28.870Z,21.70
2022-12-31T13:14:11.514Z,14.27
2022-12-31T13:19:48.659Z,10.65
2022-12-31T13:25:03.159Z,7.95
2022-12-31T13:30:33.420Z,427.27
2022-12-31T13:35:58.871Z,220.13
2022-12-31T13:41:35.044Z,226.80
2022-12-31T13:46:49.564Z,114.13
2022-12-31T13:52:06.678Z,116.55
2022-12-31T13:57:39.602Z,132.95
2022-12-31T14:02:49.359Z,195.10
2022-12-31T14:07:57.821Z,164.55
2022-12-31T14:13:21.113Z,590.35
2022-12-31T14:18:59.895Z,460.42
2022-12-31T14:24:28.552Z,190.07
2022-12-31T14:29:50.289Z,65.63
2022-12-31T14:35:01.490Z,12.55
2022-12-31T14:40:19.731Z,25.05
2022-12-31T14:45:41.005Z,436.65
2022-12-31T14:50:45.516Z,183.70
2022-12-31T14:56:00.357Z,52.28
2022-12-31T15:01:22.686Z,24.08
2022-12-31T15:06:39.024Z,90.28
2022-12-31T15:12:07.248Z,105.47
2022-12-31T15:17:24.778Z,45.42
2022-12-31T15:22:47.103Z,36.63
2022-12-31T15:27:50.061Z,50.67
2022-12-31T15:32:59.668Z,51.30
2022-12-31T15:38:11.102Z,42.42
2022-12-31T15:43:37.414Z,46.13
2022-12-31T15:48:55.461Z,74.82
2022-12-31T15:54:04.702Z,65.28
2022-12-31T15:59:30.061Z,89.75
2022-12-31T16:04:58.303Z,63.95
2022-12-31T16:10:09.652Z,29.23
2022-12-31T16:15:37.142Z,36.80
2022-12-31T16:21:08.444Z,36.78
2022-12-31T16:26:19.724Z,49.50
2022-12-31T16:32:02.260Z,25.27
2022-12-31T16:37:33.219Z,18.70
2022-12-31T16:42:58.041Z,20.20
2022-12-31T16:48:35.608Z,19.13
2022-12-31T16:53:54.293Z,22.73
2022-12-31T16:59:18.799Z,24.25
2022-12-31T17:04:56.135Z,26.05
2022-12-31T17:10:09.985Z,30.05
2022-12-31T17:15:26.799Z,28.80
2022-12-31T17:20:32.046Z,33.33
2022-12-31T17:25:37.267Z,41.45
2022-12-31T17:30:41.864Z,30.20
2022-12-31T17:35:45.530Z,44.23
2022-12-31T17:41:27.778Z,33.97
2022-12-31T17:46:34.201Z,29.15
2022-12-31T17:51:36.847Z,50.20
2022-12-31T17:56:39.687Z,65.07
2022-12-31T18:01:43.992Z,119.00
2022-12-31T18:06:49.864Z,126.47
2022-12-31T18:11:56.816Z,113.43
2022-12-31T18:17:15.347Z,32.70
2022-12-31T18:22:19.699Z,26.10
2022-12-31T18:27:23.316Z,60.63
2022-12-31T18:32:27.828Z,99.13
2022-12-31T18:37:32.204Z,76.85
2022-12-31T18:42:34.614Z,90.75
2022-12-31T18:47:37.940Z,115.35
2022-12-31T18:52:40.400Z,60.75
2022-12-31T18:57:42.795Z,55.03
2022-12-31T19:02:45.164Z,33.90
2022-12-31T19:07:47.705Z,13.90
2022-12-31T19:12:51.521Z,11.63
2022-12-31T19:17:54.081Z,11.32
2022-12-31T19:22:57.020Z,17.23
2022-12-31T19:28:00.222Z,8.95
2022-12-31T19:33:02.725Z,12.02
2022-12-31T19:38:06.521Z,9.73
2022-12-31T19:43:13.242Z,8.80
2022-12-31T19:48:19.965Z,5.35
2022-12-31T19:53:25.742Z,5.47
2022-12-31T19:58:28.274Z,7.25
2022-12-31T20:03:32.864Z,6.82
2022-12-31T20:08:37.306Z,9.63
2022-12-31T20:13:42.268Z,34.20
2022-12-31T20:18:46.239Z,17.73
2022-12-31T20:23:50.408Z,16.40
2022-12-31T20:28:53.749Z,17.85
2022-12-31T20:38:59.511Z,21.55
2022-12-31T20:44:01.990Z,16.43
2022-12-31T20:49:04.549Z,31.87
2022-12-31T21:04:14.135Z,12.13
2022-12-31T21:09:16.850Z,10.20
2022-12-31T21:14:19.560Z,10.13
2022-12-31T21:19:22.327Z,14.85
2022-12-31T21:24:24.918Z,15.83
2022-12-31T21:29:31.360Z,24.10
2022-12-31T21:34:36.885Z,30.88
2022-12-31T21:39:39.253Z,18.88
2022-12-31T21:44:41.832Z,17.43
2022-12-31T21:49:45.704Z,15.73
2022-12-31T21:55:07.833Z,29.05
2022-12-31T22:00:42.319Z,19.05
2022-12-31T22:05:47.544Z,15.43
2022-12-31T22:10:52.836Z,13.75
2022-12-31T22:16:04.351Z,11.65
2022-12-31T22:21:20.399Z,9.35
2022-12-31T22:26:25.785Z,8.73
2022-12-31T22:31:32.517Z,12.93
2022-12-31T22:36:35.191Z,13.40
2022-12-31T22:41:40.863Z,9.00
2022-12-31T22:46:43.391Z,8.00
2022-12-31T22:51:55.875Z,6.40
2022-12-31T22:57:01.333Z,12.57
2022-12-31T23:02:18.462Z,11.65
2022-12-31T23:07:20.946Z,51.97
2022-12-31T23:12:32.031Z,73.88
2022-12-31T23:17:53.499Z,19.20
2022-12-31T23:23:11.560Z,13.23
2022-12-31T23:28:17.616Z,9.90
2022-12-31T23:33:23.238Z,8.13
2022-12-31T23:38:25.662Z,12.25
2022-12-31T23:43:28.249Z,15.80
2022-12-31T23:48:30.772Z,8.67
2022-12-31T23:53:33.283Z,10.03
2022-12-31T23:58:36.224Z,10.07
